sensor_id;sensor_type;location;lat;lon;timestamp;pressure;altitude;pressure_sealevel;temperature;humidity
68712;BME280;55690;51.566;19.198;2022-07-29T00:06:52;102097.13;;;15.12;89.50
68712;BME280;55690;51.566;19.198;2022-07-29T00:10:53;102103.14;;;15.04;88.46
68712;BME280;55690;51.566;19.198;2022-07-29T00:14:59;102104.13;;;15.03;88.63
68712;BME280;55690;51.566;19.198;2022-07-29T00:19:01;102106.32;;;14.98;89.96
68712;BME280;55690;51.566;19.198;2022-07-29T00:23:02;102108.93;;;14.87;90.34
68712;BME280;55690;51.566;19.198;2022-07-29T00:31:09;102119.52;;;14.66;91.00
68712;BME280;55690;51.566;19.198;2022-07-29T00:35:11;102121.70;;;14.61;91.00
68712;BME280;55690;51.566;19.198;2022-07-29T00:39:30;102117.11;;;14.61;90.81
68712;BME280;55690;51.566;19.198;2022-07-29T00:47:36;102105.29;;;14.34;94.02
68712;BME280;55690;51.566;19.198;2022-07-29T00:51:38;102105.48;;;14.31;93.80
68712;BME280;55690;51.566;19.198;2022-07-29T00:55:40;102106.60;;;14.28;93.79
68712;BME280;55690;51.566;19.198;2022-07-29T00:59:41;102105.38;;;14.32;94.01
68712;BME280;55690;51.566;19.198;2022-07-29T01:03:43;102105.17;;;14.36;92.46
68712;BME280;55690;51.566;19.198;2022-07-29T01:07:52;102106.16;;;14.35;93.53
68712;BME280;55690;51.566;19.198;2022-07-29T01:11:54;102104.41;;;14.33;93.02
68712;BME280;55690;51.566;19.198;2022-07-29T01:16:07;102095.53;;;14.30;93.16
68712;BME280;55690;51.566;19.198;2022-07-29T01:20:20;102092.95;;;14.28;91.86
68712;BME280;55690;51.566;19.198;2022-07-29T01:24:33;102106.04;;;14.23;93.27
68712;BME280;55690;51.566;19.198;2022-07-29T01:32:47;102098.46;;;14.14;94.27
68712;BME280;55690;51.566;19.198;2022-07-29T01:37:02;102097.28;;;14.18;94.39
68712;BME280;55690;51.566;19.198;2022-07-29T01:41:16;102095.22;;;14.22;93.99
68712;BME280;55690;51.566;19.198;2022-07-29T01:45:27;102090.83;;;14.19;93.86
68712;BME280;55690;51.566;19.198;2022-07-29T01:57:51;102080.20;;;14.15;94.35
68712;BME280;55690;51.566;19.198;2022-07-29T02:01:58;102080.31;;;14.13;94.13
68712;BME280;55690;51.566;19.198;2022-07-29T02:10:13;102086.02;;;13.96;96.52
68712;BME280;55690;51.566;19.198;2022-07-29T02:22:39;102083.79;;;13.61;96.26
68712;BME280;55690;51.566;19.198;2022-07-29T02:31:01;102078.96;;;13.38;97.67
68712;BME280;55690;51.566;19.198;2022-07-29T02:47:37;102077.59;;;13.17;98.06
68712;BME280;55690;51.566;19.198;2022-07-29T02:51:51;102076.63;;;13.18;97.86
68712;BME280;55690;51.566;19.198;2022-07-29T02:55:59;102083.41;;;13.11;98.23
68712;BME280;55690;51.566;19.198;2022-07-29T03:00:09;102074.44;;;13.09;98.22
68712;BME280;55690;51.566;19.198;2022-07-29T03:06:37;102059.75;;;12.97;99.28
68712;BME280;55690;51.566;19.198;2022-07-29T03:10:46;102062.67;;;12.94;99.45
68712;BME280;55690;51.566;19.198;2022-07-29T03:14:49;102059.95;;;12.94;99.43
68712;BME280;55690;51.566;19.198;2022-07-29T03:18:58;102060.63;;;12.97;100.00
68712;BME280;55690;51.566;19.198;2022-07-29T03:23:01;102065.76;;;13.02;99.32
68712;BME280;55690;51.566;19.198;2022-07-29T03:27:07;102059.83;;;13.10;98.31
68712;BME280;55690;51.566;19.198;2022-07-29T03:31:13;102060.73;;;12.96;100.00
68712;BME280;55690;51.566;19.198;2022-07-29T03:35:20;102072.68;;;13.08;100.00
68712;BME280;55690;51.566;19.198;2022-07-29T03:43:37;102077.59;;;13.17;99.36
68712;BME280;55690;51.566;19.198;2022-07-29T03:47:45;102073.51;;;13.24;99.77
68712;BME280;55690;51.566;19.198;2022-07-29T03:51:58;102082.86;;;13.34;99.58
68712;BME280;55690;51.566;19.198;2022-07-29T03:55:59;102086.95;;;13.41;99.96
68712;BME280;55690;51.566;19.198;2022-07-29T04:00:04;102078.77;;;13.41;100.00
68712;BME280;55690;51.566;19.198;2022-07-29T04:04:06;102087.20;;;13.51;99.89
68712;BME280;55690;51.566;19.198;2022-07-29T04:08:08;102087.29;;;13.63;100.00
68712;BME280;55690;51.566;19.198;2022-07-29T04:16:21;102084.03;;;13.85;98.11
68712;BME280;55690;51.566;19.198;2022-07-29T04:24:39;102081.55;;;14.22;97.67
68712;BME280;55690;51.566;19.198;2022-07-29T04:28:40;102085.35;;;14.46;97.33
68712;BME280;55690;51.566;19.198;2022-07-29T04:36:52;102081.70;;;14.73;98.04
68712;BME280;55690;51.566;19.198;2022-07-29T04:40:58;102083.56;;;14.97;97.26
68712;BME280;55690;51.566;19.198;2022-07-29T04:49:10;102083.41;;;15.50;94.29
68712;BME280;55690;51.566;19.198;2022-07-29T04:53:16;102085.64;;;15.81;93.46
68712;BME280;55690;51.566;19.198;2022-07-29T05:01:50;102074.45;;;16.32;92.71
68712;BME280;55690;51.566;19.198;2022-07-29T05:05:49;102073.59;;;16.67;91.01
68712;BME280;55690;51.566;19.198;2022-07-29T05:09:51;102075.52;;;17.00;90.00
68712;BME280;55690;51.566;19.198;2022-07-29T05:13:53;102074.45;;;17.24;89.83
68712;BME280;55690;51.566;19.198;2022-07-29T05:17:55;102065.06;;;17.49;88.61
68712;BME280;55690;51.566;19.198;2022-07-29T05:22:00;102067.21;;;17.68;86.40
68712;BME280;55690;51.566;19.198;2022-07-29T05:26:06;102068.77;;;17.93;86.89
68712;BME280;55690;51.566;19.198;2022-07-29T05:30:12;102056.96;;;18.13;84.88
68712;BME280;55690;51.566;19.198;2022-07-29T05:34:21;102061.31;;;18.48;84.11
68712;BME280;55690;51.566;19.198;2022-07-29T05:38:24;102057.38;;;18.82;84.66
68712;BME280;55690;51.566;19.198;2022-07-29T05:46:43;102063.02;;;19.32;79.48
68712;BME280;55690;51.566;19.198;2022-07-29T05:59:03;102065.04;;;20.30;76.68
68712;BME280;55690;51.566;19.198;2022-07-29T06:07:13;102070.80;;;20.94;73.93
68712;BME280;55690;51.566;19.198;2022-07-29T06:11:15;102070.38;;;21.45;74.43
68712;BME280;55690;51.566;19.198;2022-07-29T06:15:20;102066.43;;;21.75;72.06
68712;BME280;55690;51.566;19.198;2022-07-29T06:23:32;102060.91;;;22.20;71.26
68712;BME280;55690;51.566;19.198;2022-07-29T06:27:41;102062.52;;;22.41;70.13
68712;BME280;55690;51.566;19.198;2022-07-29T06:35:50;102060.50;;;23.38;67.37
68712;BME280;55690;51.566;19.198;2022-07-29T06:39:57;102066.05;;;23.72;66.57
68712;BME280;55690;51.566;19.198;2022-07-29T06:44:11;102070.44;;;23.91;65.75
68712;BME280;55690;51.566;19.198;2022-07-29T06:48:13;102062.23;;;23.39;65.25
68712;BME280;55690;51.566;19.198;2022-07-29T06:52:20;102065.13;;;24.14;64.58
68712;BME280;55690;51.566;19.198;2022-07-29T06:56:40;102056.72;;;24.64;63.84
68712;BME280;55690;51.566;19.198;2022-07-29T07:04:53;102054.92;;;24.23;61.04
68712;BME280;55690;51.566;19.198;2022-07-29T07:09:17;102046.80;;;24.37;60.87
68712;BME280;55690;51.566;19.198;2022-07-29T07:13:15;102057.38;;;24.74;61.47
68712;BME280;55690;51.566;19.198;2022-07-29T07:17:19;102059.49;;;24.56;59.90
68712;BME280;55690;51.566;19.198;2022-07-29T07:25:38;102047.50;;;25.04;60.36
68712;BME280;55690;51.566;19.198;2022-07-29T07:29:40;102050.80;;;25.08;58.48
68712;BME280;55690;51.566;19.198;2022-07-29T07:33:43;102050.63;;;25.57;59.37
68712;BME280;55690;51.566;19.198;2022-07-29T07:37:45;102054.09;;;25.59;58.65
68712;BME280;55690;51.566;19.198;2022-07-29T07:42:15;102050.63;;;25.09;56.14
68712;BME280;55690;51.566;19.198;2022-07-29T07:46:09;102048.09;;;25.39;58.65
68712;BME280;55690;51.566;19.198;2022-07-29T07:54:15;102046.96;;;24.84;57.99
68712;BME280;55690;51.566;19.198;2022-07-29T07:58:22;102049.77;;;24.60;59.55
68712;BME280;55690;51.566;19.198;2022-07-29T08:06:28;102054.03;;;24.14;60.22
68712;BME280;55690;51.566;19.198;2022-07-29T08:10:31;102046.39;;;24.08;60.95
68712;BME280;55690;51.566;19.198;2022-07-29T08:14:44;102047.53;;;23.81;60.30
68712;BME280;55690;51.566;19.198;2022-07-29T08:18:46;102049.79;;;23.51;60.28
68712;BME280;55690;51.566;19.198;2022-07-29T08:26:59;102042.96;;;24.95;60.31
68712;BME280;55690;51.566;19.198;2022-07-29T08:31:00;102049.77;;;24.68;58.48
68712;BME280;55690;51.566;19.198;2022-07-29T08:35:06;102056.70;;;24.80;58.79
68712;BME280;55690;51.566;19.198;2022-07-29T08:39:08;102057.70;;;25.20;58.96
68712;BME280;55690;51.566;19.198;2022-07-29T08:43:09;102046.52;;;25.44;58.36
68712;BME280;55690;51.566;19.198;2022-07-29T08:47:17;102055.75;;;25.37;58.20
68712;BME280;55690;51.566;19.198;2022-07-29T08:51:30;102050.88;;;25.39;56.43
68712;BME280;55690;51.566;19.198;2022-07-29T08:55:39;102067.56;;;25.39;56.15
68712;BME280;55690;51.566;19.198;2022-07-29T08:59:43;102053.30;;;25.42;57.00
68712;BME280;55690;51.566;19.198;2022-07-29T09:03:46;102051.95;;;25.30;55.80
68712;BME280;55690;51.566;19.198;2022-07-29T09:07:49;102050.77;;;25.71;55.84
68712;BME280;55690;51.566;19.198;2022-07-29T09:15:55;102051.09;;;26.07;53.44
68712;BME280;55690;51.566;19.198;2022-07-29T09:20:10;102036.89;;;26.25;54.23
68712;BME280;55690;51.566;19.198;2022-07-29T09:28:17;102033.20;;;26.02;53.91
68712;BME280;55690;51.566;19.198;2022-07-29T09:36:29;102041.39;;;26.34;54.85
68712;BME280;55690;51.566;19.198;2022-07-29T09:40:30;102032.11;;;26.42;54.26
68712;BME280;55690;51.566;19.198;2022-07-29T09:48:40;102016.34;;;25.72;54.28
68712;BME280;55690;51.566;19.198;2022-07-29T09:52:48;102010.28;;;26.23;53.36
68712;BME280;55690;51.566;19.198;2022-07-29T09:56:58;102015.53;;;26.63;53.73
68712;BME280;55690;51.566;19.198;2022-07-29T10:00:59;102016.72;;;26.23;52.78
68712;BME280;55690;51.566;19.198;2022-07-29T10:09:18;101993.30;;;26.40;53.31
68712;BME280;55690;51.566;19.198;2022-07-29T10:17:24;101987.23;;;26.74;52.62
68712;BME280;55690;51.566;19.198;2022-07-29T10:21:33;101988.94;;;27.28;52.92
68712;BME280;55690;51.566;19.198;2022-07-29T10:42:25;101966.69;;;27.34;50.25
68712;BME280;55690;51.566;19.198;2022-07-29T10:46:34;101971.59;;;27.62;50.47
68712;BME280;55690;51.566;19.198;2022-07-29T10:54:50;101973.22;;;27.71;49.16
68712;BME280;55690;51.566;19.198;2022-07-29T11:03:07;101979.17;;;27.53;48.94
68712;BME280;55690;51.566;19.198;2022-07-29T11:15:26;101954.51;;;28.07;50.08
68712;BME280;55690;51.566;19.198;2022-07-29T11:19:28;101956.46;;;27.56;50.09
68712;BME280;55690;51.566;19.198;2022-07-29T11:23:31;101961.86;;;27.43;51.24
68712;BME280;55690;51.566;19.198;2022-07-29T11:40:13;101958.45;;;27.26;50.17
68712;BME280;55690;51.566;19.198;2022-07-29T11:44:16;101959.06;;;27.58;50.18
68712;BME280;55690;51.566;19.198;2022-07-29T11:48:18;101952.78;;;28.28;48.29
68712;BME280;55690;51.566;19.198;2022-07-29T11:56:31;101947.52;;;28.39;48.31
68712;BME280;55690;51.566;19.198;2022-07-29T12:00:40;101947.57;;;28.74;49.24
68712;BME280;55690;51.566;19.198;2022-07-29T12:08:48;101945.13;;;28.36;48.16
68712;BME280;55690;51.566;19.198;2022-07-29T12:12:52;101931.97;;;28.30;48.73
68712;BME280;55690;51.566;19.198;2022-07-29T12:17:09;101923.66;;;28.15;48.18
68712;BME280;55690;51.566;19.198;2022-07-29T12:21:08;101924.16;;;27.62;49.21
68712;BME280;55690;51.566;19.198;2022-07-29T12:25:12;101929.59;;;27.19;49.86
68712;BME280;55690;51.566;19.198;2022-07-29T12:33:28;101922.03;;;27.64;50.47
68712;BME280;55690;51.566;19.198;2022-07-29T12:46:12;101901.31;;;27.94;49.12
68712;BME280;55690;51.566;19.198;2022-07-29T12:54:13;101896.55;;;27.37;50.25
68712;BME280;55690;51.566;19.198;2022-07-29T13:11:01;101892.30;;;27.05;52.65
68712;BME280;55690;51.566;19.198;2022-07-29T13:15:15;101876.22;;;27.22;50.95
68712;BME280;55690;51.566;19.198;2022-07-29T13:19:17;101879.51;;;27.62;51.50
68712;BME280;55690;51.566;19.198;2022-07-29T13:23:19;101878.16;;;27.43;51.59
68712;BME280;55690;51.566;19.198;2022-07-29T13:27:34;101875.39;;;27.43;51.38
68712;BME280;55690;51.566;19.198;2022-07-29T13:31:37;101868.95;;;27.42;51.30
68712;BME280;55690;51.566;19.198;2022-07-29T13:35:39;101876.14;;;27.52;52.18
68712;BME280;55690;51.566;19.198;2022-07-29T13:39:45;101870.96;;;26.98;52.74
68712;BME280;55690;51.566;19.198;2022-07-29T13:43:48;101869.89;;;27.13;52.21
68712;BME280;55690;51.566;19.198;2022-07-29T13:47:50;101866.59;;;26.95;52.14
68712;BME280;55690;51.566;19.198;2022-07-29T13:51:51;101878.34;;;26.61;54.38
68712;BME280;55690;51.566;19.198;2022-07-29T13:55:53;101869.09;;;26.31;53.62
68712;BME280;55690;51.566;19.198;2022-07-29T14:00:00;101872.86;;;26.38;53.61
68712;BME280;55690;51.566;19.198;2022-07-29T14:04:05;101871.50;;;26.49;54.27
68712;BME280;55690;51.566;19.198;2022-07-29T14:08:07;101867.20;;;26.61;54.44
68712;BME280;55690;51.566;19.198;2022-07-29T14:12:13;101850.46;;;26.46;54.45
68712;BME280;55690;51.566;19.198;2022-07-29T14:16:15;101849.52;;;26.54;55.29
68712;BME280;55690;51.566;19.198;2022-07-29T14:20:16;101845.77;;;26.76;55.80
68712;BME280;55690;51.566;19.198;2022-07-29T14:24:19;101841.93;;;26.77;55.02
68712;BME280;55690;51.566;19.198;2022-07-29T14:28:21;101839.44;;;26.82;54.98
68712;BME280;55690;51.566;19.198;2022-07-29T14:32:22;101840.64;;;26.95;55.28
68712;BME280;55690;51.566;19.198;2022-07-29T14:36:27;101835.78;;;26.67;55.16
68712;BME280;55690;51.566;19.198;2022-07-29T14:40:29;101840.50;;;26.37;55.07
68712;BME280;55690;51.566;19.198;2022-07-29T14:44:30;101833.07;;;26.44;55.43
68712;BME280;55690;51.566;19.198;2022-07-29T14:48:35;101833.24;;;26.28;55.95
68712;BME280;55690;51.566;19.198;2022-07-29T14:56:41;101813.38;;;26.46;55.76
68712;BME280;55690;51.566;19.198;2022-07-29T15:00:46;101821.36;;;26.49;55.39
68712;BME280;55690;51.566;19.198;2022-07-29T15:13:00;101800.49;;;26.30;55.26
68712;BME280;55690;51.566;19.198;2022-07-29T15:17:02;101790.34;;;26.52;56.53
68712;BME280;55690;51.566;19.198;2022-07-29T15:21:05;101800.16;;;26.33;56.12
68712;BME280;55690;51.566;19.198;2022-07-29T15:25:08;101798.40;;;26.47;56.32
68712;BME280;55690;51.566;19.198;2022-07-29T15:29:11;101798.28;;;26.26;56.53
68712;BME280;55690;51.566;19.198;2022-07-29T15:33:17;101796.52;;;26.10;57.16
68712;BME280;55690;51.566;19.198;2022-07-29T15:37:23;101809.01;;;26.14;57.69
68712;BME280;55690;51.566;19.198;2022-07-29T15:41:29;101804.00;;;26.09;57.32
68712;BME280;55690;51.566;19.198;2022-07-29T15:45:41;101792.08;;;25.86;57.68
68712;BME280;55690;51.566;19.198;2022-07-29T15:53:58;101782.45;;;25.51;58.21
68712;BME280;55690;51.566;19.198;2022-07-29T15:58:01;101780.16;;;25.55;58.20
68712;BME280;55690;51.566;19.198;2022-07-29T16:06:06;101772.62;;;25.40;58.05
68712;BME280;55690;51.566;19.198;2022-07-29T16:10:12;101783.85;;;25.24;58.64
68712;BME280;55690;51.566;19.198;2022-07-29T16:14:19;101776.50;;;25.31;58.50
68712;BME280;55690;51.566;19.198;2022-07-29T16:18:24;101783.80;;;25.09;58.98
68712;BME280;55690;51.566;19.198;2022-07-29T16:26:40;101791.31;;;25.01;59.28
68712;BME280;55690;51.566;19.198;2022-07-29T16:38:55;101804.12;;;25.10;59.62
68712;BME280;55690;51.566;19.198;2022-07-29T16:43:01;101804.56;;;24.82;59.72
68712;BME280;55690;51.566;19.198;2022-07-29T16:51:14;101803.79;;;24.66;60.08
68712;BME280;55690;51.566;19.198;2022-07-29T16:55:20;101794.11;;;24.53;60.28
68712;BME280;55690;51.566;19.198;2022-07-29T17:03:32;101792.23;;;24.46;60.91
68712;BME280;55690;51.566;19.198;2022-07-29T17:07:39;101797.10;;;24.36;60.79
68712;BME280;55690;51.566;19.198;2022-07-29T17:15:53;101804.41;;;24.29;61.24
68712;BME280;55690;51.566;19.198;2022-07-29T17:24:03;101788.63;;;24.21;61.46
68712;BME280;55690;51.566;19.198;2022-07-29T17:28:09;101790.90;;;24.17;62.03
68712;BME280;55690;51.566;19.198;2022-07-29T17:32:15;101793.84;;;24.16;61.41
68712;BME280;55690;51.566;19.198;2022-07-29T17:36:22;101789.49;;;24.21;61.93
68712;BME280;55690;51.566;19.198;2022-07-29T17:40:33;101797.15;;;24.11;61.88
68712;BME280;55690;51.566;19.198;2022-07-29T17:48:40;101802.36;;;24.06;62.27
68712;BME280;55690;51.566;19.198;2022-07-29T17:52:50;101796.63;;;24.08;62.66
68712;BME280;55690;51.566;19.198;2022-07-29T18:00:58;101794.55;;;23.85;63.47
68712;BME280;55690;51.566;19.198;2022-07-29T18:05:05;101792.69;;;23.70;64.29
68712;BME280;55690;51.566;19.198;2022-07-29T18:13:19;101796.49;;;23.61;64.48
68712;BME280;55690;51.566;19.198;2022-07-29T18:17:23;101797.88;;;23.57;64.54
68712;BME280;55690;51.566;19.198;2022-07-29T18:29:45;101807.19;;;23.47;64.99
68712;BME280;55690;51.566;19.198;2022-07-29T18:37:54;101808.93;;;23.32;65.35
68712;BME280;55690;51.566;19.198;2022-07-29T18:42:06;101811.63;;;23.08;66.37
68712;BME280;55690;51.566;19.198;2022-07-29T18:46:08;101809.92;;;23.15;66.14
68712;BME280;55690;51.566;19.198;2022-07-29T18:50:12;101810.95;;;23.14;65.84
68712;BME280;55690;51.566;19.198;2022-07-29T18:54:18;101813.87;;;23.04;66.95
68712;BME280;55690;51.566;19.198;2022-07-29T18:58:25;101814.91;;;23.03;66.13
68712;BME280;55690;51.566;19.198;2022-07-29T19:02:37;101798.09;;;22.97;66.61
68712;BME280;55690;51.566;19.198;2022-07-29T19:10:43;101814.66;;;22.80;66.88
68712;BME280;55690;51.566;19.198;2022-07-29T19:14:49;101804.76;;;22.78;67.38
68712;BME280;55690;51.566;19.198;2022-07-29T19:18:59;101819.51;;;22.78;66.86
68712;BME280;55690;51.566;19.198;2022-07-29T19:23:01;101816.62;;;22.62;66.85
68712;BME280;55690;51.566;19.198;2022-07-29T19:31:14;101810.42;;;22.68;67.07
68712;BME280;55690;51.566;19.198;2022-07-29T19:35:20;101809.30;;;22.53;66.58
68712;BME280;55690;51.566;19.198;2022-07-29T19:43:43;101820.04;;;22.48;66.99
68712;BME280;55690;51.566;19.198;2022-07-29T19:47:45;101825.91;;;22.45;67.16
68712;BME280;55690;51.566;19.198;2022-07-29T19:51:51;101814.62;;;22.38;67.57
68712;BME280;55690;51.566;19.198;2022-07-29T19:55:53;101819.60;;;22.35;67.27
68712;BME280;55690;51.566;19.198;2022-07-29T20:00:05;101808.48;;;22.27;67.58
68712;BME280;55690;51.566;19.198;2022-07-29T20:04:07;101806.09;;;22.32;67.59
68712;BME280;55690;51.566;19.198;2022-07-29T20:08:11;101799.26;;;22.18;67.87
68712;BME280;55690;51.566;19.198;2022-07-29T20:12:18;101793.57;;;22.19;68.15
68712;BME280;55690;51.566;19.198;2022-07-29T20:24:39;101804.55;;;22.03;69.16
68712;BME280;55690;51.566;19.198;2022-07-29T20:32:48;101791.87;;;22.01;69.88
68712;BME280;55690;51.566;19.198;2022-07-29T20:36:54;101784.55;;;21.91;69.12
68712;BME280;55690;51.566;19.198;2022-07-29T20:41:00;101790.16;;;21.82;70.00
68712;BME280;55690;51.566;19.198;2022-07-29T20:45:08;101786.34;;;22.01;69.80
68712;BME280;55690;51.566;19.198;2022-07-29T20:49:13;101787.95;;;22.03;69.81
68712;BME280;55690;51.566;19.198;2022-07-29T20:53:19;101786.37;;;21.83;70.24
68712;BME280;55690;51.566;19.198;2022-07-29T21:01:35;101785.28;;;21.76;70.77
68712;BME280;55690;51.566;19.198;2022-07-29T21:05:38;101796.73;;;21.81;70.14
68712;BME280;55690;51.566;19.198;2022-07-29T21:09:44;101786.15;;;21.76;70.80
68712;BME280;55690;51.566;19.198;2022-07-29T21:13:50;101788.76;;;21.78;70.56
68712;BME280;55690;51.566;19.198;2022-07-29T21:17:56;101800.73;;;21.61;71.58
68712;BME280;55690;51.566;19.198;2022-07-29T21:30:17;101798.71;;;21.71;71.13
68712;BME280;55690;51.566;19.198;2022-07-29T21:34:24;101793.63;;;21.58;71.84
68712;BME280;55690;51.566;19.198;2022-07-29T21:46:42;101779.80;;;21.58;70.90
68712;BME280;55690;51.566;19.198;2022-07-29T21:54:55;101790.23;;;21.46;71.74
68712;BME280;55690;51.566;19.198;2022-07-29T22:03:04;101778.46;;;21.44;71.64
68712;BME280;55690;51.566;19.198;2022-07-29T22:07:10;101773.09;;;21.43;71.26
68712;BME280;55690;51.566;19.198;2022-07-29T22:11:16;101773.09;;;21.43;71.05
68712;BME280;55690;51.566;19.198;2022-07-29T22:15:22;101778.78;;;21.41;71.65
68712;BME280;55690;51.566;19.198;2022-07-29T22:23:40;101780.91;;;21.30;71.79
68712;BME280;55690;51.566;19.198;2022-07-29T22:31:51;101773.16;;;21.15;72.16
68712;BME280;55690;51.566;19.198;2022-07-29T22:35:53;101771.73;;;21.11;72.17
68712;BME280;55690;51.566;19.198;2022-07-29T22:39:59;101762.89;;;21.08;72.44
68712;BME280;55690;51.566;19.198;2022-07-29T22:44:09;101775.02;;;20.97;72.32
68712;BME280;55690;51.566;19.198;2022-07-29T22:52:18;101753.71;;;20.89;72.75
68712;BME280;55690;51.566;19.198;2022-07-29T22:56:24;101759.39;;;20.88;72.91
68712;BME280;55690;51.566;19.198;2022-07-29T23:00:30;101755.51;;;20.81;72.49
68712;BME280;55690;51.566;19.198;2022-07-29T23:04:40;101739.97;;;20.80;72.66
68712;BME280;55690;51.566;19.198;2022-07-29T23:12:49;101738.42;;;20.77;72.28
68712;BME280;55690;51.566;19.198;2022-07-29T23:21:01;101738.42;;;20.77;72.29
68712;BME280;55690;51.566;19.198;2022-07-29T23:25:07;101724.68;;;20.68;72.12
68712;BME280;55690;51.566;19.198;2022-07-29T23:29:17;101722.12;;;20.56;73.03
68712;BME280;55690;51.566;19.198;2022-07-29T23:33:19;101717.84;;;20.44;73.36
68712;BME280;55690;51.566;19.198;2022-07-29T23:37:29;101720.23;;;20.57;72.91
68712;BME280;55690;51.566;19.198;2022-07-29T23:45:38;101711.90;;;20.39;74.06
68712;BME280;55690;51.566;19.198;2022-07-29T23:49:48;101709.64;;;20.25;74.34
68712;BME280;55690;51.566;19.198;2022-07-29T23:53:54;101702.80;;;20.29;74.22
68712;BME280;55690;51.566;19.198;2022-07-29T23:57:56;101698.77;;;20.23;73.91
